sensor_id;sensor_type;location;lat;lon;timestamp;noise_LAeq;noise_LA_min;noise_LA_max;noise_LA01;noise_LA95
66888;Laerm;67239;51.680;5.976;2023-04-25T00:00:16;37.78;33.78;46.69;;
66888;Laerm;67239;51.680;5.976;2023-04-25T00:02:43;37.30;33.90;41.19;;
66888;Laerm;67239;51.680;5.976;2023-04-25T00:05:10;36.82;34.01;39.92;;
66888;Laerm;67239;51.680;5.976;2023-04-25T00:07:38;36.79;33.92;40.50;;
66888;Laerm;67239;51.680;5.976;2023-04-25T00:10:06;37.08;33.94;43.61;;
66888;Laerm;67239;51.680;5.976;2023-04-25T00:12:33;36.73;33.68;41.29;;
66888;Laerm;67239;51.680;5.976;2023-04-25T00:15:01;36.72;33.47;40.26;;
66888;Laerm;67239;51.680;5.976;2023-04-25T00:17:28;36.95;34.34;39.80;;
66888;Laerm;67239;51.680;5.976;2023-04-25T00:19:56;37.51;34.74;40.42;;
66888;Laerm;67239;51.680;5.976;2023-04-25T00:22:24;37.17;34.55;41.26;;
66888;Laerm;67239;51.680;5.976;2023-04-25T00:24:52;36.76;33.94;40.15;;
66888;Laerm;67239;51.680;5.976;2023-04-25T00:27:20;36.97;34.27;40.35;;
66888;Laerm;67239;51.680;5.976;2023-04-25T00:29:47;56.13;34.59;74.92;;
66888;Laerm;67239;51.680;5.976;2023-04-25T00:32:14;40.19;34.41;50.72;;
66888;Laerm;67239;51.680;5.976;2023-04-25T00:34:41;37.58;34.74;44.79;;
66888;Laerm;67239;51.680;5.976;2023-04-25T00:37:08;37.07;34.07;46.68;;
66888;Laerm;67239;51.680;5.976;2023-04-25T00:39:35;59.83;33.79;80.17;;
66888;Laerm;67239;51.680;5.976;2023-04-25T00:42:02;37.07;33.84;40.27;;
66888;Laerm;67239;51.680;5.976;2023-04-25T00:44:31;38.07;34.46;43.62;;
66888;Laerm;67239;51.680;5.976;2023-04-25T00:47:01;40.22;34.14;55.31;;
66888;Laerm;67239;51.680;5.976;2023-04-25T00:49:28;37.95;34.37;44.21;;
66888;Laerm;67239;51.680;5.976;2023-04-25T00:51:56;37.08;33.73;45.69;;
66888;Laerm;67239;51.680;5.976;2023-04-25T00:54:24;36.36;33.19;42.11;;
66888;Laerm;67239;51.680;5.976;2023-04-25T00:56:52;36.83;33.38;43.41;;
66888;Laerm;67239;51.680;5.976;2023-04-25T00:59:20;37.22;33.22;45.18;;
66888;Laerm;67239;51.680;5.976;2023-04-25T01:01:48;36.37;33.67;40.16;;
66888;Laerm;67239;51.680;5.976;2023-04-25T01:04:15;37.27;33.73;44.11;;
66888;Laerm;67239;51.680;5.976;2023-04-25T01:06:42;37.52;33.87;41.23;;
66888;Laerm;67239;51.680;5.976;2023-04-25T01:09:10;38.00;34.75;43.26;;
66888;Laerm;67239;51.680;5.976;2023-04-25T01:11:38;38.24;34.90;42.65;;
66888;Laerm;67239;51.680;5.976;2023-04-25T01:14:07;39.28;34.18;52.69;;
66888;Laerm;67239;51.680;5.976;2023-04-25T01:16:34;38.37;34.76;47.37;;
66888;Laerm;67239;51.680;5.976;2023-04-25T01:19:09;37.68;33.87;54.14;;
66888;Laerm;67239;51.680;5.976;2023-04-25T01:21:40;36.80;33.96;41.47;;
66888;Laerm;67239;51.680;5.976;2023-04-25T01:24:07;37.60;33.87;57.57;;
66888;Laerm;67239;51.680;5.976;2023-04-25T01:26:36;58.50;33.96;78.78;;
66888;Laerm;67239;51.680;5.976;2023-04-25T01:29:04;48.75;33.61;66.76;;
66888;Laerm;67239;51.680;5.976;2023-04-25T01:31:32;47.93;33.51;67.28;;
66888;Laerm;67239;51.680;5.976;2023-04-25T01:34:01;47.88;34.13;65.54;;
66888;Laerm;67239;51.680;5.976;2023-04-25T01:36:28;47.93;34.67;65.67;;
66888;Laerm;67239;51.680;5.976;2023-04-25T01:38:56;48.01;34.79;67.88;;
66888;Laerm;67239;51.680;5.976;2023-04-25T01:41:23;51.75;35.61;71.08;;
66888;Laerm;67239;51.680;5.976;2023-04-25T01:43:51;52.27;35.99;71.22;;
66888;Laerm;67239;51.680;5.976;2023-04-25T01:46:19;51.93;35.29;71.75;;
66888;Laerm;67239;51.680;5.976;2023-04-25T01:48:46;52.11;35.80;72.88;;
66888;Laerm;67239;51.680;5.976;2023-04-25T01:51:14;52.08;36.19;71.19;;
66888;Laerm;67239;51.680;5.976;2023-04-25T01:53:43;50.45;35.39;70.01;;
66888;Laerm;67239;51.680;5.976;2023-04-25T01:56:11;58.09;35.68;76.31;;
66888;Laerm;67239;51.680;5.976;2023-04-25T01:58:39;62.13;34.84;82.84;;
66888;Laerm;67239;51.680;5.976;2023-04-25T02:01:32;57.74;34.56;76.73;;
66888;Laerm;67239;51.680;5.976;2023-04-25T02:04:13;56.79;33.92;77.07;;
66888;Laerm;67239;51.680;5.976;2023-04-25T02:06:41;52.01;34.75;69.44;;
66888;Laerm;67239;51.680;5.976;2023-04-25T02:09:08;52.72;33.86;70.39;;
66888;Laerm;67239;51.680;5.976;2023-04-25T02:11:40;53.03;35.43;70.55;;
66888;Laerm;67239;51.680;5.976;2023-04-25T02:14:26;52.01;34.51;69.77;;
66888;Laerm;67239;51.680;5.976;2023-04-25T02:17:16;52.36;35.30;70.45;;
66888;Laerm;67239;51.680;5.976;2023-04-25T02:19:44;52.45;35.62;69.86;;
66888;Laerm;67239;51.680;5.976;2023-04-25T02:22:12;52.58;34.18;70.24;;
66888;Laerm;67239;51.680;5.976;2023-04-25T02:24:40;51.59;34.65;69.10;;
66888;Laerm;67239;51.680;5.976;2023-04-25T02:27:07;51.71;34.37;70.04;;
66888;Laerm;67239;51.680;5.976;2023-04-25T02:29:35;56.66;34.06;71.67;;
66888;Laerm;67239;51.680;5.976;2023-04-25T02:32:02;51.58;34.75;70.59;;
66888;Laerm;67239;51.680;5.976;2023-04-25T02:34:29;43.82;34.81;67.46;;
66888;Laerm;67239;51.680;5.976;2023-04-25T02:37:00;38.02;33.84;50.90;;
66888;Laerm;67239;51.680;5.976;2023-04-25T02:39:27;39.06;34.79;44.34;;
66888;Laerm;67239;51.680;5.976;2023-04-25T02:41:55;38.89;34.95;60.18;;
66888;Laerm;67239;51.680;5.976;2023-04-25T02:44:22;62.82;35.28;83.44;;
66888;Laerm;67239;51.680;5.976;2023-04-25T02:46:49;64.47;35.53;80.73;;
66888;Laerm;67239;51.680;5.976;2023-04-25T02:49:16;40.85;34.94;56.18;;
66888;Laerm;67239;51.680;5.976;2023-04-25T02:51:52;41.31;35.70;54.21;;
66888;Laerm;67239;51.680;5.976;2023-04-25T02:54:19;52.39;35.28;67.87;;
66888;Laerm;67239;51.680;5.976;2023-04-25T02:56:47;57.22;36.35;75.04;;
66888;Laerm;67239;51.680;5.976;2023-04-25T02:59:20;57.97;35.52;74.00;;
66888;Laerm;67239;51.680;5.976;2023-04-25T03:01:47;59.83;35.65;79.53;;
66888;Laerm;67239;51.680;5.976;2023-04-25T03:04:14;63.75;37.90;83.71;;
66888;Laerm;67239;51.680;5.976;2023-04-25T03:06:41;42.29;38.10;48.93;;
66888;Laerm;67239;51.680;5.976;2023-04-25T03:09:08;59.72;37.61;77.95;;
66888;Laerm;67239;51.680;5.976;2023-04-25T03:11:38;58.31;37.62;74.16;;
66888;Laerm;67239;51.680;5.976;2023-04-25T03:14:05;63.36;37.21;80.82;;
66888;Laerm;67239;51.680;5.976;2023-04-25T03:16:33;62.79;37.70;79.37;;
66888;Laerm;67239;51.680;5.976;2023-04-25T03:19:02;58.18;37.99;75.06;;
66888;Laerm;67239;51.680;5.976;2023-04-25T03:21:30;67.29;38.05;87.49;;
66888;Laerm;67239;51.680;5.976;2023-04-25T03:24:03;58.86;39.63;72.57;;
66888;Laerm;67239;51.680;5.976;2023-04-25T03:26:31;64.16;41.71;79.65;;
66888;Laerm;67239;51.680;5.976;2023-04-25T03:28:59;62.91;38.19;77.93;;
66888;Laerm;67239;51.680;5.976;2023-04-25T03:31:26;49.89;39.79;66.07;;
66888;Laerm;67239;51.680;5.976;2023-04-25T03:33:53;60.47;39.87;79.72;;
66888;Laerm;67239;51.680;5.976;2023-04-25T03:36:22;63.59;39.19;81.99;;
66888;Laerm;67239;51.680;5.976;2023-04-25T03:38:49;64.71;39.15;81.77;;
66888;Laerm;67239;51.680;5.976;2023-04-25T03:41:17;64.82;39.22;79.05;;
66888;Laerm;67239;51.680;5.976;2023-04-25T03:43:48;64.17;39.52;79.91;;
66888;Laerm;67239;51.680;5.976;2023-04-25T03:46:16;64.95;41.11;80.10;;
66888;Laerm;67239;51.680;5.976;2023-04-25T03:48:45;65.03;42.90;77.35;;
66888;Laerm;67239;51.680;5.976;2023-04-25T03:51:19;67.56;44.19;83.28;;
66888;Laerm;67239;51.680;5.976;2023-04-25T03:53:47;68.97;42.00;81.61;;
66888;Laerm;67239;51.680;5.976;2023-04-25T03:56:21;60.73;40.43;78.00;;
66888;Laerm;67239;51.680;5.976;2023-04-25T03:58:56;63.14;41.58;79.21;;
66888;Laerm;67239;51.680;5.976;2023-04-25T04:01:26;65.62;43.14;79.12;;
66888;Laerm;67239;51.680;5.976;2023-04-25T04:03:54;68.88;42.91;84.00;;
66888;Laerm;67239;51.680;5.976;2023-04-25T04:06:23;70.09;44.83;82.21;;
66888;Laerm;67239;51.680;5.976;2023-04-25T04:08:57;69.78;43.81;83.32;;
66888;Laerm;67239;51.680;5.976;2023-04-25T04:11:24;66.82;43.20;84.56;;
66888;Laerm;67239;51.680;5.976;2023-04-25T04:13:52;70.67;46.17;85.00;;
66888;Laerm;67239;51.680;5.976;2023-04-25T04:16:19;66.88;44.52;81.93;;
66888;Laerm;67239;51.680;5.976;2023-04-25T04:18:47;68.04;42.68;81.71;;
66888;Laerm;67239;51.680;5.976;2023-04-25T04:21:14;66.41;41.36;80.57;;
66888;Laerm;67239;51.680;5.976;2023-04-25T04:23:41;67.46;42.59;81.91;;
66888;Laerm;67239;51.680;5.976;2023-04-25T04:26:10;64.49;43.65;80.65;;
66888;Laerm;67239;51.680;5.976;2023-04-25T04:28:55;62.58;42.25;78.64;;
66888;Laerm;67239;51.680;5.976;2023-04-25T04:31:32;66.26;43.16;79.84;;
66888;Laerm;67239;51.680;5.976;2023-04-25T04:34:00;65.06;43.44;79.62;;
66888;Laerm;67239;51.680;5.976;2023-04-25T04:36:29;63.80;43.77;79.11;;
66888;Laerm;67239;51.680;5.976;2023-04-25T04:39:00;68.94;46.74;81.83;;
66888;Laerm;67239;51.680;5.976;2023-04-25T04:41:38;66.46;43.84;81.78;;
66888;Laerm;67239;51.680;5.976;2023-04-25T04:44:25;69.77;48.10;84.66;;
66888;Laerm;67239;51.680;5.976;2023-04-25T04:47:11;68.62;43.74;82.89;;
66888;Laerm;67239;51.680;5.976;2023-04-25T04:50:10;70.01;49.33;80.68;;
66888;Laerm;67239;51.680;5.976;2023-04-25T04:52:56;69.97;47.78;80.79;;
66888;Laerm;67239;51.680;5.976;2023-04-25T04:55:43;69.84;44.50;83.08;;
66888;Laerm;67239;51.680;5.976;2023-04-25T04:58:29;70.22;46.85;83.61;;
66888;Laerm;67239;51.680;5.976;2023-04-25T05:01:35;70.61;44.16;83.81;;
66888;Laerm;67239;51.680;5.976;2023-04-25T05:04:20;65.94;41.52;81.69;;
66888;Laerm;67239;51.680;5.976;2023-04-25T05:07:06;66.96;42.85;82.00;;
66888;Laerm;67239;51.680;5.976;2023-04-25T05:10:03;71.44;43.90;85.55;;
66888;Laerm;67239;51.680;5.976;2023-04-25T05:12:59;67.28;45.52;78.98;;
66888;Laerm;67239;51.680;5.976;2023-04-25T05:16:05;68.80;43.88;82.55;;
66888;Laerm;67239;51.680;5.976;2023-04-25T05:18:55;70.09;44.94;84.01;;
66888;Laerm;67239;51.680;5.976;2023-04-25T05:21:28;68.85;48.92;81.12;;
66888;Laerm;67239;51.680;5.976;2023-04-25T05:24:09;70.01;47.15;83.88;;
66888;Laerm;67239;51.680;5.976;2023-04-25T05:26:57;71.34;46.97;82.46;;
66888;Laerm;67239;51.680;5.976;2023-04-25T05:29:39;69.62;47.53;81.71;;
66888;Laerm;67239;51.680;5.976;2023-04-25T05:32:17;68.36;46.81;85.84;;
66888;Laerm;67239;51.680;5.976;2023-04-25T05:34:46;67.24;44.78;81.56;;
66888;Laerm;67239;51.680;5.976;2023-04-25T05:37:22;69.14;46.55;82.57;;
66888;Laerm;67239;51.680;5.976;2023-04-25T05:39:55;68.38;43.32;81.40;;
66888;Laerm;67239;51.680;5.976;2023-04-25T05:42:51;68.85;47.74;83.44;;
66888;Laerm;67239;51.680;5.976;2023-04-25T05:45:21;71.61;51.47;83.92;;
66888;Laerm;67239;51.680;5.976;2023-04-25T05:48:23;69.85;42.50;82.35;;
66888;Laerm;67239;51.680;5.976;2023-04-25T05:50:58;68.71;51.83;81.40;;
66888;Laerm;67239;51.680;5.976;2023-04-25T05:53:47;70.58;45.35;82.80;;
66888;Laerm;67239;51.680;5.976;2023-04-25T05:56:20;69.81;47.58;82.42;;
66888;Laerm;67239;51.680;5.976;2023-04-25T05:58:54;68.93;45.64;81.35;;
66888;Laerm;67239;51.680;5.976;2023-04-25T06:01:24;68.84;46.72;83.54;;
66888;Laerm;67239;51.680;5.976;2023-04-25T06:03:51;70.21;48.14;81.87;;
66888;Laerm;67239;51.680;5.976;2023-04-25T06:06:23;69.47;46.16;81.28;;
66888;Laerm;67239;51.680;5.976;2023-04-25T06:08:50;70.62;46.37;82.71;;
66888;Laerm;67239;51.680;5.976;2023-04-25T06:11:17;68.51;44.71;81.16;;
66888;Laerm;67239;51.680;5.976;2023-04-25T06:13:45;65.66;44.82;77.21;;
66888;Laerm;67239;51.680;5.976;2023-04-25T06:16:15;68.81;46.20;80.81;;
66888;Laerm;67239;51.680;5.976;2023-04-25T06:18:43;71.29;47.66;84.23;;
66888;Laerm;67239;51.680;5.976;2023-04-25T06:21:10;67.83;47.93;82.64;;
66888;Laerm;67239;51.680;5.976;2023-04-25T06:23:37;71.93;49.68;84.23;;
66888;Laerm;67239;51.680;5.976;2023-04-25T06:26:06;72.14;50.05;84.12;;
66888;Laerm;67239;51.680;5.976;2023-04-25T06:28:36;68.19;49.14;83.06;;
66888;Laerm;67239;51.680;5.976;2023-04-25T06:31:04;68.18;45.34;80.73;;
66888;Laerm;67239;51.680;5.976;2023-04-25T06:33:31;67.97;46.01;78.92;;
66888;Laerm;67239;51.680;5.976;2023-04-25T06:35:59;67.21;42.66;81.08;;
66888;Laerm;67239;51.680;5.976;2023-04-25T06:38:27;66.33;47.56;79.73;;
66888;Laerm;67239;51.680;5.976;2023-04-25T06:40:56;68.73;44.49;83.18;;
66888;Laerm;67239;51.680;5.976;2023-04-25T06:43:25;69.13;47.90;81.69;;
66888;Laerm;67239;51.680;5.976;2023-04-25T06:45:52;68.64;50.63;81.62;;
66888;Laerm;67239;51.680;5.976;2023-04-25T06:48:21;68.27;45.39;83.01;;
66888;Laerm;67239;51.680;5.976;2023-04-25T06:50:48;71.67;52.55;84.06;;
66888;Laerm;67239;51.680;5.976;2023-04-25T06:53:15;68.92;46.29;83.43;;
66888;Laerm;67239;51.680;5.976;2023-04-25T06:55:46;71.00;47.14;83.78;;
66888;Laerm;67239;51.680;5.976;2023-04-25T06:58:18;70.69;51.15;83.69;;
66888;Laerm;67239;51.680;5.976;2023-04-25T07:01:03;69.56;47.33;84.60;;
66888;Laerm;67239;51.680;5.976;2023-04-25T07:03:32;70.10;47.98;80.73;;
66888;Laerm;67239;51.680;5.976;2023-04-25T07:06:06;69.34;48.19;82.86;;
66888;Laerm;67239;51.680;5.976;2023-04-25T07:08:33;68.61;48.28;80.98;;
66888;Laerm;67239;51.680;5.976;2023-04-25T07:11:00;68.93;47.47;82.24;;
66888;Laerm;67239;51.680;5.976;2023-04-25T07:13:27;69.78;45.42;83.35;;
66888;Laerm;67239;51.680;5.976;2023-04-25T07:15:55;67.86;46.41;79.07;;
66888;Laerm;67239;51.680;5.976;2023-04-25T07:18:23;68.93;46.93;81.26;;
66888;Laerm;67239;51.680;5.976;2023-04-25T07:20:51;69.80;46.95;83.12;;
66888;Laerm;67239;51.680;5.976;2023-04-25T07:23:19;68.94;43.86;80.58;;
66888;Laerm;67239;51.680;5.976;2023-04-25T07:25:47;68.89;49.82;81.02;;
66888;Laerm;67239;51.680;5.976;2023-04-25T07:28:19;69.01;46.97;82.35;;
66888;Laerm;67239;51.680;5.976;2023-04-25T07:30:47;67.28;43.64;79.89;;
66888;Laerm;67239;51.680;5.976;2023-04-25T07:33:14;66.01;43.24;81.34;;
66888;Laerm;67239;51.680;5.976;2023-04-25T07:35:41;68.19;46.35;82.56;;
66888;Laerm;67239;51.680;5.976;2023-04-25T07:38:09;66.63;42.11;79.26;;
66888;Laerm;67239;51.680;5.976;2023-04-25T07:40:38;65.30;45.62;78.45;;
66888;Laerm;67239;51.680;5.976;2023-04-25T07:43:07;70.03;44.04;86.42;;
66888;Laerm;67239;51.680;5.976;2023-04-25T07:45:46;67.59;41.93;85.13;;
66888;Laerm;67239;51.680;5.976;2023-04-25T07:48:19;67.43;42.52;81.74;;
66888;Laerm;67239;51.680;5.976;2023-04-25T07:50:47;69.34;48.43;83.73;;
66888;Laerm;67239;51.680;5.976;2023-04-25T07:53:14;71.04;44.66;84.46;;
66888;Laerm;67239;51.680;5.976;2023-04-25T07:55:57;69.12;45.51;83.91;;
66888;Laerm;67239;51.680;5.976;2023-04-25T07:58:38;69.51;47.59;79.10;;
66888;Laerm;67239;51.680;5.976;2023-04-25T08:01:08;67.61;46.45;77.79;;
66888;Laerm;67239;51.680;5.976;2023-04-25T08:03:50;66.78;45.06;79.65;;
66888;Laerm;67239;51.680;5.976;2023-04-25T08:06:29;68.82;47.46;80.26;;
66888;Laerm;67239;51.680;5.976;2023-04-25T08:09:13;70.84;46.07;91.33;;
66888;Laerm;67239;51.680;5.976;2023-04-25T08:11:41;69.47;46.36;82.25;;
66888;Laerm;67239;51.680;5.976;2023-04-25T08:14:12;67.27;45.32;77.71;;
66888;Laerm;67239;51.680;5.976;2023-04-25T08:16:42;69.39;48.02;86.63;;
66888;Laerm;67239;51.680;5.976;2023-04-25T08:19:10;68.81;44.29;80.42;;
66888;Laerm;67239;51.680;5.976;2023-04-25T08:21:38;69.08;45.37;82.11;;
66888;Laerm;67239;51.680;5.976;2023-04-25T08:24:10;70.92;48.18;83.36;;
66888;Laerm;67239;51.680;5.976;2023-04-25T08:26:39;66.31;43.85;81.01;;
66888;Laerm;67239;51.680;5.976;2023-04-25T08:29:10;67.32;46.02;81.16;;
66888;Laerm;67239;51.680;5.976;2023-04-25T08:31:40;67.03;44.26;78.74;;
66888;Laerm;67239;51.680;5.976;2023-04-25T08:34:09;66.67;46.90;79.35;;
66888;Laerm;67239;51.680;5.976;2023-04-25T08:36:42;69.30;45.54;81.53;;
66888;Laerm;67239;51.680;5.976;2023-04-25T08:39:24;68.61;44.12;80.00;;
66888;Laerm;67239;51.680;5.976;2023-04-25T08:42:12;67.17;41.31;78.10;;
66888;Laerm;67239;51.680;5.976;2023-04-25T08:44:39;64.99;48.47;78.56;;
66888;Laerm;67239;51.680;5.976;2023-04-25T08:47:06;68.54;46.24;81.79;;
66888;Laerm;67239;51.680;5.976;2023-04-25T08:50:03;69.18;45.37;83.46;;
66888;Laerm;67239;51.680;5.976;2023-04-25T08:52:44;70.97;50.23;82.75;;
66888;Laerm;67239;51.680;5.976;2023-04-25T08:55:14;67.49;44.72;81.55;;
66888;Laerm;67239;51.680;5.976;2023-04-25T08:57:43;70.68;44.61;83.77;;
66888;Laerm;67239;51.680;5.976;2023-04-25T09:00:12;69.33;47.15;80.13;;
66888;Laerm;67239;51.680;5.976;2023-04-25T09:02:42;61.60;42.20;75.81;;
66888;Laerm;67239;51.680;5.976;2023-04-25T09:05:14;65.89;41.39;79.62;;
66888;Laerm;67239;51.680;5.976;2023-04-25T09:07:42;69.94;42.10;82.21;;
66888;Laerm;67239;51.680;5.976;2023-04-25T09:10:10;66.03;42.94;78.72;;
66888;Laerm;67239;51.680;5.976;2023-04-25T09:12:38;69.15;46.05;83.76;;
66888;Laerm;67239;51.680;5.976;2023-04-25T09:15:11;69.43;47.67;84.40;;
66888;Laerm;67239;51.680;5.976;2023-04-25T09:17:58;68.35;47.00;79.79;;
66888;Laerm;67239;51.680;5.976;2023-04-25T09:20:31;69.32;47.28;81.97;;
66888;Laerm;67239;51.680;5.976;2023-04-25T09:23:04;69.04;47.57;80.81;;
66888;Laerm;67239;51.680;5.976;2023-04-25T09:25:38;69.20;43.37;83.37;;
66888;Laerm;67239;51.680;5.976;2023-04-25T09:28:11;69.88;46.21;83.59;;
66888;Laerm;67239;51.680;5.976;2023-04-25T09:30:38;67.69;40.51;84.97;;
66888;Laerm;67239;51.680;5.976;2023-04-25T09:33:33;69.75;43.97;84.13;;
66888;Laerm;67239;51.680;5.976;2023-04-25T09:36:08;67.11;42.95;80.51;;
66888;Laerm;67239;51.680;5.976;2023-04-25T09:39:02;68.77;44.41;84.27;;
66888;Laerm;67239;51.680;5.976;2023-04-25T09:41:37;66.93;48.11;77.06;;
66888;Laerm;67239;51.680;5.976;2023-04-25T09:44:05;68.58;45.89;81.12;;
66888;Laerm;67239;51.680;5.976;2023-04-25T09:46:36;70.92;48.06;86.18;;
66888;Laerm;67239;51.680;5.976;2023-04-25T09:49:07;67.74;44.77;81.41;;
66888;Laerm;67239;51.680;5.976;2023-04-25T09:51:59;68.07;45.32;82.19;;
66888;Laerm;67239;51.680;5.976;2023-04-25T09:54:51;68.20;46.03;81.69;;
66888;Laerm;67239;51.680;5.976;2023-04-25T09:57:25;68.20;47.25;80.41;;
66888;Laerm;67239;51.680;5.976;2023-04-25T10:00:00;70.10;47.88;83.26;;
66888;Laerm;67239;51.680;5.976;2023-04-25T10:02:42;68.75;44.83;85.68;;
66888;Laerm;67239;51.680;5.976;2023-04-25T10:05:32;67.43;45.00;80.19;;
66888;Laerm;67239;51.680;5.976;2023-04-25T10:08:03;69.40;45.89;83.92;;
66888;Laerm;67239;51.680;5.976;2023-04-25T10:10:33;65.53;44.46;77.75;;
66888;Laerm;67239;51.680;5.976;2023-04-25T10:13:06;67.20;44.82;81.96;;
66888;Laerm;67239;51.680;5.976;2023-04-25T10:15:35;69.49;47.65;84.36;;
66888;Laerm;67239;51.680;5.976;2023-04-25T10:18:06;68.03;45.75;82.06;;
66888;Laerm;67239;51.680;5.976;2023-04-25T10:20:34;67.49;45.63;80.38;;
66888;Laerm;67239;51.680;5.976;2023-04-25T10:23:16;66.87;43.15;80.95;;
66888;Laerm;67239;51.680;5.976;2023-04-25T10:25:44;66.67;46.28;79.56;;
66888;Laerm;67239;51.680;5.976;2023-04-25T10:28:13;68.64;43.95;80.14;;
66888;Laerm;67239;51.680;5.976;2023-04-25T10:31:07;70.47;47.98;82.49;;
66888;Laerm;67239;51.680;5.976;2023-04-25T10:33:37;68.35;48.13;80.05;;
66888;Laerm;67239;51.680;5.976;2023-04-25T10:36:24;68.11;48.30;81.12;;
66888;Laerm;67239;51.680;5.976;2023-04-25T10:38:53;68.92;42.37;86.51;;
66888;Laerm;67239;51.680;5.976;2023-04-25T10:41:21;66.62;43.59;83.08;;
66888;Laerm;67239;51.680;5.976;2023-04-25T10:43:59;69.73;46.76;81.65;;
66888;Laerm;67239;51.680;5.976;2023-04-25T10:46:28;68.63;48.97;84.22;;
66888;Laerm;67239;51.680;5.976;2023-04-25T10:49:01;65.90;46.62;79.04;;
66888;Laerm;67239;51.680;5.976;2023-04-25T10:51:34;66.43;44.80;82.33;;
66888;Laerm;67239;51.680;5.976;2023-04-25T10:54:22;68.74;42.93;80.78;;
66888;Laerm;67239;51.680;5.976;2023-04-25T10:56:50;66.81;43.68;80.33;;
66888;Laerm;67239;51.680;5.976;2023-04-25T10:59:19;69.53;44.82;84.85;;
66888;Laerm;67239;51.680;5.976;2023-04-25T11:01:52;66.74;43.76;82.23;;
66888;Laerm;67239;51.680;5.976;2023-04-25T11:04:32;69.04;47.89;81.19;;
66888;Laerm;67239;51.680;5.976;2023-04-25T11:10:09;66.36;46.23;79.24;;
66888;Laerm;67239;51.680;5.976;2023-04-25T11:12:36;69.43;46.32;83.06;;
66888;Laerm;67239;51.680;5.976;2023-04-25T11:15:05;66.73;46.35;80.15;;
66888;Laerm;67239;51.680;5.976;2023-04-25T11:17:35;67.65;46.50;80.12;;
66888;Laerm;67239;51.680;5.976;2023-04-25T11:20:03;61.31;43.31;75.56;;
66888;Laerm;67239;51.680;5.976;2023-04-25T11:22:34;69.49;45.51;82.05;;
66888;Laerm;67239;51.680;5.976;2023-04-25T11:25:09;68.56;42.31;82.02;;
66888;Laerm;67239;51.680;5.976;2023-04-25T11:27:56;68.05;43.75;82.46;;
66888;Laerm;67239;51.680;5.976;2023-04-25T11:30:26;69.05;44.72;81.22;;
66888;Laerm;67239;51.680;5.976;2023-04-25T11:32:53;66.93;42.30;79.83;;
66888;Laerm;67239;51.680;5.976;2023-04-25T11:35:20;70.00;44.36;82.20;;
66888;Laerm;67239;51.680;5.976;2023-04-25T11:37:50;70.40;48.94;84.12;;
66888;Laerm;67239;51.680;5.976;2023-04-25T11:40:17;69.39;48.79;81.40;;
66888;Laerm;67239;51.680;5.976;2023-04-25T11:42:47;67.87;47.27;82.56;;
66888;Laerm;67239;51.680;5.976;2023-04-25T11:45:14;69.57;47.44;83.22;;
66888;Laerm;67239;51.680;5.976;2023-04-25T11:47:42;70.55;50.86;84.79;;
66888;Laerm;67239;51.680;5.976;2023-04-25T11:50:09;69.42;48.45;80.72;;
66888;Laerm;67239;51.680;5.976;2023-04-25T11:52:38;69.31;48.13;80.19;;
66888;Laerm;67239;51.680;5.976;2023-04-25T11:57:39;69.83;50.31;84.33;;
66888;Laerm;67239;51.680;5.976;2023-04-25T12:00:21;68.66;48.97;81.10;;
66888;Laerm;67239;51.680;5.976;2023-04-25T12:02:54;70.73;49.53;82.11;;
66888;Laerm;67239;51.680;5.976;2023-04-25T12:05:31;69.98;47.78;84.27;;
66888;Laerm;67239;51.680;5.976;2023-04-25T12:08:12;68.64;46.24;80.82;;
66888;Laerm;67239;51.680;5.976;2023-04-25T12:10:42;69.08;49.48;82.24;;
66888;Laerm;67239;51.680;5.976;2023-04-25T12:13:22;67.80;45.64;81.75;;
66888;Laerm;67239;51.680;5.976;2023-04-25T12:15:49;67.50;46.12;82.22;;
66888;Laerm;67239;51.680;5.976;2023-04-25T12:18:23;68.66;47.80;80.82;;
66888;Laerm;67239;51.680;5.976;2023-04-25T12:20:53;68.52;47.16;81.01;;
66888;Laerm;67239;51.680;5.976;2023-04-25T12:23:27;67.98;46.67;82.89;;
66888;Laerm;67239;51.680;5.976;2023-04-25T12:25:55;69.72;48.31;81.86;;
66888;Laerm;67239;51.680;5.976;2023-04-25T12:28:24;67.29;47.72;82.60;;
66888;Laerm;67239;51.680;5.976;2023-04-25T12:30:58;67.07;48.97;79.39;;
66888;Laerm;67239;51.680;5.976;2023-04-25T12:33:29;70.01;47.70;85.59;;
66888;Laerm;67239;51.680;5.976;2023-04-25T12:35:58;70.96;52.55;83.37;;
66888;Laerm;67239;51.680;5.976;2023-04-25T12:38:31;64.94;46.92;79.97;;
66888;Laerm;67239;51.680;5.976;2023-04-25T12:40:58;68.26;48.66;81.11;;
66888;Laerm;67239;51.680;5.976;2023-04-25T12:43:26;69.15;48.62;84.39;;
66888;Laerm;67239;51.680;5.976;2023-04-25T12:45:55;68.23;47.09;84.36;;
66888;Laerm;67239;51.680;5.976;2023-04-25T12:48:23;71.34;47.67;88.02;;
66888;Laerm;67239;51.680;5.976;2023-04-25T12:50:53;70.75;48.13;84.90;;
66888;Laerm;67239;51.680;5.976;2023-04-25T12:53:23;70.03;47.48;88.30;;
66888;Laerm;67239;51.680;5.976;2023-04-25T12:55:53;66.75;46.93;78.79;;
66888;Laerm;67239;51.680;5.976;2023-04-25T12:58:21;66.84;46.16;80.34;;
66888;Laerm;67239;51.680;5.976;2023-04-25T13:00:48;69.03;46.98;83.86;;
66888;Laerm;67239;51.680;5.976;2023-04-25T13:03:15;69.56;50.07;84.18;;
66888;Laerm;67239;51.680;5.976;2023-04-25T13:05:43;70.78;51.66;82.83;;
66888;Laerm;67239;51.680;5.976;2023-04-25T13:08:10;68.78;47.79;81.32;;
66888;Laerm;67239;51.680;5.976;2023-04-25T13:10:38;70.45;48.48;83.06;;
66888;Laerm;67239;51.680;5.976;2023-04-25T13:13:06;72.21;48.16;85.24;;
66888;Laerm;67239;51.680;5.976;2023-04-25T13:15:35;69.59;45.93;85.03;;
66888;Laerm;67239;51.680;5.976;2023-04-25T13:18:04;71.91;47.16;83.21;;
66888;Laerm;67239;51.680;5.976;2023-04-25T13:20:32;69.97;48.36;83.70;;
66888;Laerm;67239;51.680;5.976;2023-04-25T13:23:00;68.85;45.99;80.45;;
66888;Laerm;67239;51.680;5.976;2023-04-25T13:25:29;67.07;46.10;78.84;;
66888;Laerm;67239;51.680;5.976;2023-04-25T13:27:56;67.75;48.08;83.41;;
66888;Laerm;67239;51.680;5.976;2023-04-25T13:30:23;68.48;47.83;81.30;;
66888;Laerm;67239;51.680;5.976;2023-04-25T13:32:50;67.75;45.22;81.57;;
66888;Laerm;67239;51.680;5.976;2023-04-25T13:35:18;67.12;47.43;79.70;;
66888;Laerm;67239;51.680;5.976;2023-04-25T13:37:45;69.28;48.66;79.58;;
66888;Laerm;67239;51.680;5.976;2023-04-25T13:40:12;70.99;49.52;84.05;;
66888;Laerm;67239;51.680;5.976;2023-04-25T13:42:42;70.19;49.59;80.14;;
66888;Laerm;67239;51.680;5.976;2023-04-25T13:45:33;67.40;48.22;80.00;;
66888;Laerm;67239;51.680;5.976;2023-04-25T13:48:01;67.80;47.23;78.72;;
66888;Laerm;67239;51.680;5.976;2023-04-25T13:50:28;69.94;48.48;83.43;;
66888;Laerm;67239;51.680;5.976;2023-04-25T13:52:55;72.13;48.66;86.20;;
66888;Laerm;67239;51.680;5.976;2023-04-25T13:55:22;68.60;43.89;81.18;;
66888;Laerm;67239;51.680;5.976;2023-04-25T13:57:49;68.01;46.32;78.97;;
66888;Laerm;67239;51.680;5.976;2023-04-25T14:00:17;70.45;46.75;81.56;;
66888;Laerm;67239;51.680;5.976;2023-04-25T14:02:44;70.91;48.16;81.71;;
66888;Laerm;67239;51.680;5.976;2023-04-25T14:05:13;70.77;48.67;84.48;;
66888;Laerm;67239;51.680;5.976;2023-04-25T14:07:40;70.52;51.04;82.82;;
66888;Laerm;67239;51.680;5.976;2023-04-25T14:10:07;70.68;48.91;83.88;;
66888;Laerm;67239;51.680;5.976;2023-04-25T14:12:34;70.61;46.89;83.51;;
66888;Laerm;67239;51.680;5.976;2023-04-25T14:15:02;70.50;47.78;84.55;;